Airfield :
LOGIN :

Register | Disclaimer

   EN    FR    IT 

 










Legend :    VFR   Marginal VFR   IFR   Intensive IFR   Very Intensive IFR
Visi :
Ceiling :
>= 8 km
>= 3000ft
5 to 8 km
1000 to 3000 ft
1500m to 5 km
500 to 1000 ft
800 to 1500m
200 to 500 ft
< 800m
< 200 ft
Symbols :   Thunderstorms  Fog  Heavy snow  Heavy precipitations  Wind > 20 kt
SIGMETs :     Misc.  Thunderstorms  Icing  Turbulence  Mountain Waves  Volcanic Ashes






- Airport Elevation : 86 ft
- IATA code : HAU


ENHD - Haugesund

CURRENT METAR :
  • 021850Z 31024G40KT 9000 FEW016CB SCT033 05/00 Q0991

EXPIRED METARs :
  • 021820Z 31025G38KT 9999 FEW020CB SCT025 04/M00 Q0990
  • 021750Z 31027G38KT 9000 -SHRA FEW015CB SCT018 BKN030 05/00 Q0989
  • 021720Z 30028G41KT 9999 -SHRA FEW015CB SCT035 04/00 Q0989
  • 021650Z 30036G50KT 9999 -SHRA FEW015CB SCT036 05/01 Q0988
  • 021620Z 30025G37KT 9999 VCSH FEW015CB SCT040 06/M00 Q0987

Expired Forecast.



MET'MAP, your aeronautical weather chart ! - Copyright ORBIFLY December 2007 - Disclaimer

ORBIFLY MET'MAP TEAM :

Programming & Development : Alexandra Zaïnal
Concept & original design : Baudouin d'Aumeries
Assistance for programming : Marc-Olivier Méhu
Technical & hardware support : Manuel Goepfert

Contact : metmap@orbifly.com




SOURCES & CREDITS :

   NOAA